sensor_id;sensor_type;location;lat;lon;timestamp;P1;durP1;ratioP1;P2;durP2;ratioP2
1446;SDS011;717;51.522;7.266;2023-04-25T00:00:16;7.32;;;3.28;;
1446;SDS011;717;51.522;7.266;2023-04-25T00:02:48;8.85;;;4.03;;
1446;SDS011;717;51.522;7.266;2023-04-25T00:05:16;8.98;;;3.35;;
1446;SDS011;717;51.522;7.266;2023-04-25T00:07:45;9.27;;;4.07;;
1446;SDS011;717;51.522;7.266;2023-04-25T00:10:14;10.00;;;4.38;;
1446;SDS011;717;51.522;7.266;2023-04-25T00:12:43;9.00;;;3.95;;
1446;SDS011;717;51.522;7.266;2023-04-25T00:15:11;9.97;;;3.57;;
1446;SDS011;717;51.522;7.266;2023-04-25T00:17:41;8.30;;;3.90;;
1446;SDS011;717;51.522;7.266;2023-04-25T00:20:13;7.20;;;3.72;;
1446;SDS011;717;51.522;7.266;2023-04-25T00:22:42;10.07;;;4.05;;
1446;SDS011;717;51.522;7.266;2023-04-25T00:25:10;11.25;;;4.22;;
1446;SDS011;717;51.522;7.266;2023-04-25T00:27:39;6.40;;;3.28;;
1446;SDS011;717;51.522;7.266;2023-04-25T00:30:08;6.80;;;3.15;;
1446;SDS011;717;51.522;7.266;2023-04-25T00:32:37;6.55;;;3.78;;
1446;SDS011;717;51.522;7.266;2023-04-25T00:35:06;6.43;;;3.50;;
1446;SDS011;717;51.522;7.266;2023-04-25T00:37:39;7.85;;;3.72;;
1446;SDS011;717;51.522;7.266;2023-04-25T00:40:08;5.67;;;3.17;;
1446;SDS011;717;51.522;7.266;2023-04-25T00:42:37;5.87;;;3.33;;
1446;SDS011;717;51.522;7.266;2023-04-25T00:45:06;6.72;;;3.20;;
1446;SDS011;717;51.522;7.266;2023-04-25T00:47:37;4.60;;;3.13;;
1446;SDS011;717;51.522;7.266;2023-04-25T00:50:06;5.45;;;3.30;;
1446;SDS011;717;51.522;7.266;2023-04-25T00:52:36;5.93;;;3.17;;
1446;SDS011;717;51.522;7.266;2023-04-25T00:55:08;6.80;;;3.35;;
1446;SDS011;717;51.522;7.266;2023-04-25T00:57:38;5.63;;;3.30;;
1446;SDS011;717;51.522;7.266;2023-04-25T01:00:08;5.78;;;3.67;;
1446;SDS011;717;51.522;7.266;2023-04-25T01:02:38;6.38;;;3.22;;
1446;SDS011;717;51.522;7.266;2023-04-25T01:05:08;6.13;;;3.20;;
1446;SDS011;717;51.522;7.266;2023-04-25T01:07:39;9.00;;;3.08;;
1446;SDS011;717;51.522;7.266;2023-04-25T01:10:08;9.53;;;3.60;;
1446;SDS011;717;51.522;7.266;2023-04-25T01:12:37;3.63;;;3.30;;
1446;SDS011;717;51.522;7.266;2023-04-25T01:15:06;6.57;;;2.97;;
1446;SDS011;717;51.522;7.266;2023-04-25T01:17:35;5.55;;;3.28;;
1446;SDS011;717;51.522;7.266;2023-04-25T01:20:05;5.57;;;3.15;;
1446;SDS011;717;51.522;7.266;2023-04-25T01:22:37;4.72;;;3.00;;
1446;SDS011;717;51.522;7.266;2023-04-25T01:25:06;6.43;;;3.28;;
1446;SDS011;717;51.522;7.266;2023-04-25T01:27:35;8.52;;;3.35;;
1446;SDS011;717;51.522;7.266;2023-04-25T01:30:05;5.53;;;3.08;;
1446;SDS011;717;51.522;7.266;2023-04-25T01:32:34;6.70;;;3.20;;
1446;SDS011;717;51.522;7.266;2023-04-25T01:35:06;4.68;;;2.92;;
1446;SDS011;717;51.522;7.266;2023-04-25T01:37:39;6.70;;;3.30;;
1446;SDS011;717;51.522;7.266;2023-04-25T01:40:09;9.57;;;3.70;;
1446;SDS011;717;51.522;7.266;2023-04-25T01:42:39;6.30;;;3.47;;
1446;SDS011;717;51.522;7.266;2023-04-25T01:45:09;7.45;;;3.65;;
1446;SDS011;717;51.522;7.266;2023-04-25T01:47:39;8.95;;;3.67;;
1446;SDS011;717;51.522;7.266;2023-04-25T01:50:09;7.18;;;3.72;;
1446;SDS011;717;51.522;7.266;2023-04-25T01:52:41;6.38;;;4.07;;
1446;SDS011;717;51.522;7.266;2023-04-25T01:55:11;7.90;;;3.13;;
1446;SDS011;717;51.522;7.266;2023-04-25T01:57:39;8.05;;;4.22;;
1446;SDS011;717;51.522;7.266;2023-04-25T02:00:09;9.25;;;3.65;;
1446;SDS011;717;51.522;7.266;2023-04-25T02:02:38;6.78;;;4.18;;
1446;SDS011;717;51.522;7.266;2023-04-25T02:05:07;7.20;;;3.78;;
1446;SDS011;717;51.522;7.266;2023-04-25T02:07:36;6.32;;;4.18;;
1446;SDS011;717;51.522;7.266;2023-04-25T02:10:08;4.95;;;3.38;;
1446;SDS011;717;51.522;7.266;2023-04-25T02:12:37;11.73;;;4.15;;
1446;SDS011;717;51.522;7.266;2023-04-25T02:15:06;8.90;;;4.57;;
1446;SDS011;717;51.522;7.266;2023-04-25T02:17:35;9.48;;;4.50;;
1446;SDS011;717;51.522;7.266;2023-04-25T02:20:05;11.50;;;5.28;;
1446;SDS011;717;51.522;7.266;2023-04-25T02:22:35;9.02;;;5.35;;
1446;SDS011;717;51.522;7.266;2023-04-25T02:25:04;8.05;;;4.72;;
1446;SDS011;717;51.522;7.266;2023-04-25T02:27:36;7.18;;;4.85;;
1446;SDS011;717;51.522;7.266;2023-04-25T02:30:05;11.07;;;5.10;;
1446;SDS011;717;51.522;7.266;2023-04-25T02:32:35;10.05;;;4.13;;
1446;SDS011;717;51.522;7.266;2023-04-25T02:35:04;11.70;;;5.20;;
1446;SDS011;717;51.522;7.266;2023-04-25T02:37:34;8.75;;;5.00;;
1446;SDS011;717;51.522;7.266;2023-04-25T02:40:03;10.25;;;4.53;;
1446;SDS011;717;51.522;7.266;2023-04-25T02:42:33;9.68;;;3.97;;
1446;SDS011;717;51.522;7.266;2023-04-25T02:45:05;7.23;;;4.10;;
1446;SDS011;717;51.522;7.266;2023-04-25T02:47:34;9.48;;;4.18;;
1446;SDS011;717;51.522;7.266;2023-04-25T02:50:03;6.45;;;4.20;;
1446;SDS011;717;51.522;7.266;2023-04-25T02:52:33;9.48;;;4.45;;
1446;SDS011;717;51.522;7.266;2023-04-25T02:55:01;10.00;;;4.37;;
1446;SDS011;717;51.522;7.266;2023-04-25T02:57:30;8.55;;;4.55;;
1446;SDS011;717;51.522;7.266;2023-04-25T03:00:02;9.82;;;4.63;;
1446;SDS011;717;51.522;7.266;2023-04-25T03:02:32;8.57;;;4.30;;
1446;SDS011;717;51.522;7.266;2023-04-25T03:05:01;12.20;;;5.28;;
1446;SDS011;717;51.522;7.266;2023-04-25T03:07:29;10.00;;;4.70;;
1446;SDS011;717;51.522;7.266;2023-04-25T03:09:58;6.40;;;4.13;;
1446;SDS011;717;51.522;7.266;2023-04-25T03:12:27;8.77;;;4.53;;
1446;SDS011;717;51.522;7.266;2023-04-25T03:14:56;9.63;;;4.10;;
1446;SDS011;717;51.522;7.266;2023-04-25T03:17:27;9.27;;;4.43;;
1446;SDS011;717;51.522;7.266;2023-04-25T03:19:56;8.23;;;4.60;;
1446;SDS011;717;51.522;7.266;2023-04-25T03:22:25;10.38;;;4.15;;
1446;SDS011;717;51.522;7.266;2023-04-25T03:24:54;10.90;;;4.80;;
1446;SDS011;717;51.522;7.266;2023-04-25T03:27:22;5.85;;;4.78;;
1446;SDS011;717;51.522;7.266;2023-04-25T03:29:51;7.10;;;4.50;;
1446;SDS011;717;51.522;7.266;2023-04-25T03:32:20;7.17;;;4.40;;
1446;SDS011;717;51.522;7.266;2023-04-25T03:34:51;10.98;;;5.10;;
1446;SDS011;717;51.522;7.266;2023-04-25T03:37:20;11.97;;;4.73;;
1446;SDS011;717;51.522;7.266;2023-04-25T03:39:48;7.43;;;4.47;;
1446;SDS011;717;51.522;7.266;2023-04-25T03:42:17;11.83;;;5.23;;
1446;SDS011;717;51.522;7.266;2023-04-25T03:44:47;8.48;;;4.90;;
1446;SDS011;717;51.522;7.266;2023-04-25T03:47:16;10.52;;;4.63;;
1446;SDS011;717;51.522;7.266;2023-04-25T03:49:45;7.57;;;4.07;;
1446;SDS011;717;51.522;7.266;2023-04-25T03:52:19;9.75;;;4.68;;
1446;SDS011;717;51.522;7.266;2023-04-25T03:54:48;8.57;;;4.75;;
1446;SDS011;717;51.522;7.266;2023-04-25T03:57:16;11.43;;;5.10;;
1446;SDS011;717;51.522;7.266;2023-04-25T03:59:45;9.18;;;5.20;;
1446;SDS011;717;51.522;7.266;2023-04-25T04:02:13;12.32;;;4.07;;
1446;SDS011;717;51.522;7.266;2023-04-25T04:04:42;5.38;;;2.67;;
1446;SDS011;717;51.522;7.266;2023-04-25T04:07:11;6.68;;;2.38;;
1446;SDS011;717;51.522;7.266;2023-04-25T04:09:42;4.90;;;2.25;;
1446;SDS011;717;51.522;7.266;2023-04-25T04:12:11;6.22;;;2.40;;
1446;SDS011;717;51.522;7.266;2023-04-25T04:14:40;4.50;;;1.67;;
1446;SDS011;717;51.522;7.266;2023-04-25T04:17:08;4.22;;;1.77;;
1446;SDS011;717;51.522;7.266;2023-04-25T04:19:37;5.03;;;1.73;;
1446;SDS011;717;51.522;7.266;2023-04-25T04:22:06;8.37;;;2.07;;
1446;SDS011;717;51.522;7.266;2023-04-25T04:24:35;5.68;;;1.73;;
1446;SDS011;717;51.522;7.266;2023-04-25T04:27:06;6.32;;;1.80;;
1446;SDS011;717;51.522;7.266;2023-04-25T04:29:35;4.80;;;1.60;;
1446;SDS011;717;51.522;7.266;2023-04-25T04:32:04;7.45;;;1.60;;
1446;SDS011;717;51.522;7.266;2023-04-25T04:34:33;3.20;;;1.50;;
1446;SDS011;717;51.522;7.266;2023-04-25T04:37:02;3.28;;;1.70;;
1446;SDS011;717;51.522;7.266;2023-04-25T04:39:31;4.97;;;1.88;;
1446;SDS011;717;51.522;7.266;2023-04-25T04:42:00;6.68;;;1.70;;
1446;SDS011;717;51.522;7.266;2023-04-25T04:44:32;7.25;;;1.83;;
1446;SDS011;717;51.522;7.266;2023-04-25T04:47:01;8.10;;;1.58;;
1446;SDS011;717;51.522;7.266;2023-04-25T04:49:31;7.50;;;1.83;;
1446;SDS011;717;51.522;7.266;2023-04-25T04:52:00;7.88;;;1.70;;
1446;SDS011;717;51.522;7.266;2023-04-25T04:54:28;6.95;;;1.60;;
1446;SDS011;717;51.522;7.266;2023-04-25T04:56:57;7.07;;;1.85;;
1446;SDS011;717;51.522;7.266;2023-04-25T04:59:25;4.82;;;1.92;;
1446;SDS011;717;51.522;7.266;2023-04-25T05:01:57;8.15;;;1.92;;
1446;SDS011;717;51.522;7.266;2023-04-25T05:04:25;5.03;;;1.52;;
1446;SDS011;717;51.522;7.266;2023-04-25T05:06:54;9.73;;;2.10;;
1446;SDS011;717;51.522;7.266;2023-04-25T05:09:22;6.05;;;1.70;;
1446;SDS011;717;51.522;7.266;2023-04-25T05:11:52;8.40;;;2.10;;
1446;SDS011;717;51.522;7.266;2023-04-25T05:14:20;4.47;;;1.90;;
1446;SDS011;717;51.522;7.266;2023-04-25T05:16:49;6.18;;;1.98;;
1446;SDS011;717;51.522;7.266;2023-04-25T05:19:20;8.73;;;2.38;;
1446;SDS011;717;51.522;7.266;2023-04-25T05:21:49;6.43;;;2.05;;
1446;SDS011;717;51.522;7.266;2023-04-25T05:24:18;8.00;;;2.30;;
1446;SDS011;717;51.522;7.266;2023-04-25T05:26:46;10.80;;;2.30;;
1446;SDS011;717;51.522;7.266;2023-04-25T05:29:15;7.00;;;2.08;;
1446;SDS011;717;51.522;7.266;2023-04-25T05:31:44;7.60;;;2.78;;
1446;SDS011;717;51.522;7.266;2023-04-25T05:34:13;9.57;;;3.10;;
1446;SDS011;717;51.522;7.266;2023-04-25T05:36:45;8.85;;;3.17;;
1446;SDS011;717;51.522;7.266;2023-04-25T05:39:14;8.05;;;3.38;;
1446;SDS011;717;51.522;7.266;2023-04-25T05:41:43;7.25;;;2.95;;
1446;SDS011;717;51.522;7.266;2023-04-25T05:44:12;7.57;;;3.60;;
1446;SDS011;717;51.522;7.266;2023-04-25T05:46:41;8.15;;;3.65;;
1446;SDS011;717;51.522;7.266;2023-04-25T05:49:09;6.45;;;3.90;;
1446;SDS011;717;51.522;7.266;2023-04-25T05:51:38;9.15;;;4.10;;
1446;SDS011;717;51.522;7.266;2023-04-25T05:54:09;11.40;;;4.60;;
1446;SDS011;717;51.522;7.266;2023-04-25T05:56:37;11.93;;;4.85;;
1446;SDS011;717;51.522;7.266;2023-04-25T05:59:06;9.27;;;4.57;;
1446;SDS011;717;51.522;7.266;2023-04-25T06:01:34;9.18;;;4.53;;
1446;SDS011;717;51.522;7.266;2023-04-25T06:04:03;9.55;;;5.10;;
1446;SDS011;717;51.522;7.266;2023-04-25T06:06:32;9.65;;;4.65;;
1446;SDS011;717;51.522;7.266;2023-04-25T06:09:00;11.40;;;4.90;;
1446;SDS011;717;51.522;7.266;2023-04-25T06:11:31;10.35;;;5.07;;
1446;SDS011;717;51.522;7.266;2023-04-25T06:14:00;12.10;;;5.47;;
1446;SDS011;717;51.522;7.266;2023-04-25T06:16:28;15.07;;;5.53;;
1446;SDS011;717;51.522;7.266;2023-04-25T06:18:57;13.18;;;6.07;;
1446;SDS011;717;51.522;7.266;2023-04-25T06:21:25;12.07;;;4.90;;
1446;SDS011;717;51.522;7.266;2023-04-25T06:23:54;11.63;;;5.38;;
1446;SDS011;717;51.522;7.266;2023-04-25T06:26:22;13.68;;;5.35;;
1446;SDS011;717;51.522;7.266;2023-04-25T06:28:53;10.30;;;4.88;;
1446;SDS011;717;51.522;7.266;2023-04-25T06:31:22;10.88;;;4.85;;
1446;SDS011;717;51.522;7.266;2023-04-25T06:33:50;9.68;;;3.72;;
1446;SDS011;717;51.522;7.266;2023-04-25T06:36:19;11.63;;;3.55;;
1446;SDS011;717;51.522;7.266;2023-04-25T06:38:50;10.18;;;2.90;;
1446;SDS011;717;51.522;7.266;2023-04-25T06:41:18;10.48;;;3.13;;
1446;SDS011;717;51.522;7.266;2023-04-25T06:43:47;10.38;;;2.75;;
1446;SDS011;717;51.522;7.266;2023-04-25T06:46:18;6.07;;;2.10;;
1446;SDS011;717;51.522;7.266;2023-04-25T06:48:47;10.63;;;2.50;;
1446;SDS011;717;51.522;7.266;2023-04-25T06:51:16;9.98;;;2.47;;
1446;SDS011;717;51.522;7.266;2023-04-25T06:53:44;6.95;;;2.17;;
1446;SDS011;717;51.522;7.266;2023-04-25T06:56:13;8.15;;;2.47;;
1446;SDS011;717;51.522;7.266;2023-04-25T06:58:41;13.00;;;2.50;;
1446;SDS011;717;51.522;7.266;2023-04-25T07:01:10;7.00;;;2.15;;
1446;SDS011;717;51.522;7.266;2023-04-25T07:03:41;7.63;;;2.47;;
1446;SDS011;717;51.522;7.266;2023-04-25T07:06:09;7.78;;;2.15;;
1446;SDS011;717;51.522;7.266;2023-04-25T07:08:38;7.53;;;2.28;;
1446;SDS011;717;51.522;7.266;2023-04-25T07:11:06;9.40;;;2.83;;
1446;SDS011;717;51.522;7.266;2023-04-25T07:13:35;13.18;;;3.00;;
1446;SDS011;717;51.522;7.266;2023-04-25T07:16:04;6.30;;;2.75;;
1446;SDS011;717;51.522;7.266;2023-04-25T07:18:33;8.60;;;3.00;;
1446;SDS011;717;51.522;7.266;2023-04-25T07:21:04;7.72;;;2.60;;
1446;SDS011;717;51.522;7.266;2023-04-25T07:23:33;9.77;;;2.80;;
1446;SDS011;717;51.522;7.266;2023-04-25T07:26:02;9.75;;;2.60;;
1446;SDS011;717;51.522;7.266;2023-04-25T07:28:31;7.93;;;2.70;;
1446;SDS011;717;51.522;7.266;2023-04-25T07:30:59;7.40;;;2.25;;
1446;SDS011;717;51.522;7.266;2023-04-25T07:33:28;7.18;;;2.65;;
1446;SDS011;717;51.522;7.266;2023-04-25T07:35:57;10.65;;;3.08;;
1446;SDS011;717;51.522;7.266;2023-04-25T07:38:28;7.47;;;2.40;;
1446;SDS011;717;51.522;7.266;2023-04-25T07:40:57;9.73;;;2.67;;
1446;SDS011;717;51.522;7.266;2023-04-25T07:43:25;5.97;;;2.03;;
1446;SDS011;717;51.522;7.266;2023-04-25T07:45:54;6.93;;;2.08;;
1446;SDS011;717;51.522;7.266;2023-04-25T07:48:23;9.73;;;2.30;;
1446;SDS011;717;51.522;7.266;2023-04-25T07:50:52;7.28;;;2.28;;
1446;SDS011;717;51.522;7.266;2023-04-25T07:53:20;8.82;;;2.03;;
1446;SDS011;717;51.522;7.266;2023-04-25T07:55:52;8.25;;;2.22;;
1446;SDS011;717;51.522;7.266;2023-04-25T07:58:20;7.63;;;1.83;;
1446;SDS011;717;51.522;7.266;2023-04-25T08:00:49;5.55;;;1.75;;
1446;SDS011;717;51.522;7.266;2023-04-25T08:03:18;6.95;;;1.60;;
1446;SDS011;717;51.522;7.266;2023-04-25T08:05:46;9.77;;;1.83;;
1446;SDS011;717;51.522;7.266;2023-04-25T08:08:15;7.45;;;1.60;;
1446;SDS011;717;51.522;7.266;2023-04-25T08:10:44;6.95;;;1.80;;
1446;SDS011;717;51.522;7.266;2023-04-25T08:13:15;9.23;;;1.65;;
1446;SDS011;717;51.522;7.266;2023-04-25T08:15:44;8.45;;;1.70;;
1446;SDS011;717;51.522;7.266;2023-04-25T08:18:12;4.35;;;1.60;;
1446;SDS011;717;51.522;7.266;2023-04-25T08:20:41;5.57;;;1.48;;
1446;SDS011;717;51.522;7.266;2023-04-25T08:23:10;10.70;;;2.13;;
1446;SDS011;717;51.522;7.266;2023-04-25T08:25:38;7.75;;;1.50;;
1446;SDS011;717;51.522;7.266;2023-04-25T08:28:07;8.02;;;1.55;;
1446;SDS011;717;51.522;7.266;2023-04-25T08:30:38;7.07;;;1.23;;
1446;SDS011;717;51.522;7.266;2023-04-25T08:33:06;5.32;;;1.23;;
1446;SDS011;717;51.522;7.266;2023-04-25T08:35:35;6.88;;;1.40;;
1446;SDS011;717;51.522;7.266;2023-04-25T08:38:04;5.70;;;1.42;;
1446;SDS011;717;51.522;7.266;2023-04-25T08:40:32;10.25;;;1.80;;
1446;SDS011;717;51.522;7.266;2023-04-25T08:43:06;5.72;;;1.13;;
1446;SDS011;717;51.522;7.266;2023-04-25T08:45:39;7.00;;;1.00;;
1446;SDS011;717;51.522;7.266;2023-04-25T08:48:10;5.63;;;1.30;;
1446;SDS011;717;51.522;7.266;2023-04-25T08:50:43;5.63;;;1.48;;
1446;SDS011;717;51.522;7.266;2023-04-25T08:53:16;5.40;;;1.20;;
1446;SDS011;717;51.522;7.266;2023-04-25T08:55:48;6.25;;;1.38;;
1446;SDS011;717;51.522;7.266;2023-04-25T08:58:18;5.10;;;1.33;;
1446;SDS011;717;51.522;7.266;2023-04-25T09:00:50;5.97;;;1.40;;
1446;SDS011;717;51.522;7.266;2023-04-25T09:03:19;5.38;;;0.98;;
1446;SDS011;717;51.522;7.266;2023-04-25T09:05:48;4.07;;;1.17;;
1446;SDS011;717;51.522;7.266;2023-04-25T09:08:17;5.47;;;1.40;;
1446;SDS011;717;51.522;7.266;2023-04-25T09:10:46;4.75;;;1.20;;
1446;SDS011;717;51.522;7.266;2023-04-25T09:13:17;4.68;;;1.20;;
1446;SDS011;717;51.522;7.266;2023-04-25T09:15:55;6.07;;;1.27;;
1446;SDS011;717;51.522;7.266;2023-04-25T09:18:25;5.93;;;1.30;;
1446;SDS011;717;51.522;7.266;2023-04-25T09:20:55;3.67;;;1.15;;
1446;SDS011;717;51.522;7.266;2023-04-25T09:23:24;4.80;;;1.10;;
1446;SDS011;717;51.522;7.266;2023-04-25T09:25:53;5.93;;;1.30;;
1446;SDS011;717;51.522;7.266;2023-04-25T09:28:25;4.57;;;1.20;;
1446;SDS011;717;51.522;7.266;2023-04-25T09:30:57;4.75;;;1.60;;
1446;SDS011;717;51.522;7.266;2023-04-25T09:33:29;4.97;;;1.33;;
1446;SDS011;717;51.522;7.266;2023-04-25T09:36:03;5.57;;;1.60;;
1446;SDS011;717;51.522;7.266;2023-04-25T09:38:40;6.85;;;1.58;;
1446;SDS011;717;51.522;7.266;2023-04-25T09:41:10;4.07;;;1.42;;
1446;SDS011;717;51.522;7.266;2023-04-25T09:43:39;5.45;;;1.40;;
1446;SDS011;717;51.522;7.266;2023-04-25T09:46:10;4.60;;;1.58;;
1446;SDS011;717;51.522;7.266;2023-04-25T09:48:39;5.43;;;1.15;;
1446;SDS011;717;51.522;7.266;2023-04-25T09:51:08;3.40;;;1.27;;
1446;SDS011;717;51.522;7.266;2023-04-25T09:53:39;4.40;;;1.20;;
1446;SDS011;717;51.522;7.266;2023-04-25T09:56:10;3.25;;;0.98;;
1446;SDS011;717;51.522;7.266;2023-04-25T09:58:40;3.10;;;1.00;;
1446;SDS011;717;51.522;7.266;2023-04-25T10:01:11;4.47;;;1.40;;
1446;SDS011;717;51.522;7.266;2023-04-25T10:03:40;5.53;;;1.08;;
1446;SDS011;717;51.522;7.266;2023-04-25T10:06:10;3.58;;;1.10;;
1446;SDS011;717;51.522;7.266;2023-04-25T10:08:41;2.63;;;0.90;;
1446;SDS011;717;51.522;7.266;2023-04-25T10:11:11;4.28;;;0.70;;
1446;SDS011;717;51.522;7.266;2023-04-25T10:13:40;3.63;;;0.88;;
1446;SDS011;717;51.522;7.266;2023-04-25T10:16:13;4.70;;;1.00;;
1446;SDS011;717;51.522;7.266;2023-04-25T10:18:41;3.58;;;0.93;;
1446;SDS011;717;51.522;7.266;2023-04-25T10:21:10;3.00;;;0.77;;
1446;SDS011;717;51.522;7.266;2023-04-25T10:23:40;4.65;;;1.20;;
1446;SDS011;717;51.522;7.266;2023-04-25T10:26:10;4.13;;;1.20;;
1446;SDS011;717;51.522;7.266;2023-04-25T10:31:26;6.68;;;0.90;;
1446;SDS011;717;51.522;7.266;2023-04-25T10:33:55;4.85;;;0.80;;
1446;SDS011;717;51.522;7.266;2023-04-25T10:36:24;3.17;;;0.80;;
1446;SDS011;717;51.522;7.266;2023-04-25T10:38:54;4.38;;;1.45;;
1446;SDS011;717;51.522;7.266;2023-04-25T10:41:23;2.42;;;0.70;;
1446;SDS011;717;51.522;7.266;2023-04-25T10:43:58;5.43;;;1.30;;
1446;SDS011;717;51.522;7.266;2023-04-25T10:46:31;4.70;;;1.10;;
1446;SDS011;717;51.522;7.266;2023-04-25T10:49:01;5.53;;;1.10;;
1446;SDS011;717;51.522;7.266;2023-04-25T10:51:31;3.88;;;1.10;;
1446;SDS011;717;51.522;7.266;2023-04-25T10:54:01;3.15;;;0.85;;
1446;SDS011;717;51.522;7.266;2023-04-25T10:56:31;3.35;;;0.93;;
1446;SDS011;717;51.522;7.266;2023-04-25T10:59:04;5.18;;;1.20;;
1446;SDS011;717;51.522;7.266;2023-04-25T11:01:38;4.30;;;0.98;;
1446;SDS011;717;51.522;7.266;2023-04-25T11:04:21;5.22;;;0.85;;
1446;SDS011;717;51.522;7.266;2023-04-25T11:06:55;3.63;;;1.13;;
1446;SDS011;717;51.522;7.266;2023-04-25T11:09:30;5.30;;;0.98;;
1446;SDS011;717;51.522;7.266;2023-04-25T11:12:00;2.75;;;0.88;;
1446;SDS011;717;51.522;7.266;2023-04-25T11:14:30;3.60;;;1.05;;
1446;SDS011;717;51.522;7.266;2023-04-25T11:17:01;3.60;;;0.90;;
1446;SDS011;717;51.522;7.266;2023-04-25T11:19:30;3.70;;;1.00;;
1446;SDS011;717;51.522;7.266;2023-04-25T11:21:59;2.05;;;0.93;;
1446;SDS011;717;51.522;7.266;2023-04-25T11:24:29;2.92;;;1.08;;
1446;SDS011;717;51.522;7.266;2023-04-25T11:26:59;1.60;;;0.77;;
1446;SDS011;717;51.522;7.266;2023-04-25T11:29:28;4.97;;;1.00;;
1446;SDS011;717;51.522;7.266;2023-04-25T11:31:58;5.10;;;1.20;;
1446;SDS011;717;51.522;7.266;2023-04-25T11:34:29;2.33;;;0.70;;
1446;SDS011;717;51.522;7.266;2023-04-25T11:36:59;2.08;;;0.90;;
1446;SDS011;717;51.522;7.266;2023-04-25T11:39:29;5.20;;;0.95;;
1446;SDS011;717;51.522;7.266;2023-04-25T11:41:58;4.45;;;1.00;;
1446;SDS011;717;51.522;7.266;2023-04-25T11:44:26;3.97;;;1.02;;
1446;SDS011;717;51.522;7.266;2023-04-25T11:46:56;4.80;;;1.05;;
1446;SDS011;717;51.522;7.266;2023-04-25T11:49:27;1.73;;;0.68;;
1446;SDS011;717;51.522;7.266;2023-04-25T11:51:58;3.65;;;0.85;;
1446;SDS011;717;51.522;7.266;2023-04-25T11:54:27;2.75;;;0.70;;
1446;SDS011;717;51.522;7.266;2023-04-25T11:56:55;2.45;;;0.65;;
1446;SDS011;717;51.522;7.266;2023-04-25T11:59:24;2.70;;;0.52;;
1446;SDS011;717;51.522;7.266;2023-04-25T12:01:54;0.90;;;0.50;;
1446;SDS011;717;51.522;7.266;2023-04-25T12:04:23;2.22;;;0.50;;
1446;SDS011;717;51.522;7.266;2023-04-25T12:06:55;2.17;;;0.60;;
1446;SDS011;717;51.522;7.266;2023-04-25T12:09:27;2.08;;;0.47;;
1446;SDS011;717;51.522;7.266;2023-04-25T12:11:57;2.47;;;0.98;;
1446;SDS011;717;51.522;7.266;2023-04-25T12:14:28;2.88;;;0.73;;
1446;SDS011;717;51.522;7.266;2023-04-25T12:16:58;2.45;;;1.05;;
1446;SDS011;717;51.522;7.266;2023-04-25T12:19:31;1.90;;;0.70;;
1446;SDS011;717;51.522;7.266;2023-04-25T12:22:03;2.85;;;0.50;;
1446;SDS011;717;51.522;7.266;2023-04-25T12:24:47;1.67;;;0.52;;
1446;SDS011;717;51.522;7.266;2023-04-25T12:27:18;3.00;;;0.60;;
1446;SDS011;717;51.522;7.266;2023-04-25T12:29:52;1.58;;;0.50;;
1446;SDS011;717;51.522;7.266;2023-04-25T12:32:22;1.80;;;0.65;;
1446;SDS011;717;51.522;7.266;2023-04-25T12:34:51;1.63;;;0.47;;
1446;SDS011;717;51.522;7.266;2023-04-25T12:37:22;1.20;;;0.50;;
1446;SDS011;717;51.522;7.266;2023-04-25T12:39:51;1.73;;;0.77;;
1446;SDS011;717;51.522;7.266;2023-04-25T12:42:19;2.15;;;0.73;;
1446;SDS011;717;51.522;7.266;2023-04-25T12:44:48;2.50;;;0.70;;
1446;SDS011;717;51.522;7.266;2023-04-25T12:47:17;3.22;;;0.55;;
1446;SDS011;717;51.522;7.266;2023-04-25T12:49:46;5.28;;;0.80;;
1446;SDS011;717;51.522;7.266;2023-04-25T12:52:14;2.40;;;1.00;;
1446;SDS011;717;51.522;7.266;2023-04-25T12:54:45;3.38;;;0.80;;
1446;SDS011;717;51.522;7.266;2023-04-25T12:57:14;2.67;;;0.60;;
1446;SDS011;717;51.522;7.266;2023-04-25T12:59:42;2.40;;;0.73;;
1446;SDS011;717;51.522;7.266;2023-04-25T13:02:11;1.27;;;0.52;;
1446;SDS011;717;51.522;7.266;2023-04-25T13:04:39;1.42;;;0.55;;
1446;SDS011;717;51.522;7.266;2023-04-25T13:07:08;1.05;;;0.50;;
1446;SDS011;717;51.522;7.266;2023-04-25T13:09:36;3.03;;;0.50;;
1446;SDS011;717;51.522;7.266;2023-04-25T13:12:07;4.30;;;0.73;;
1446;SDS011;717;51.522;7.266;2023-04-25T13:14:36;2.30;;;0.60;;
1446;SDS011;717;51.522;7.266;2023-04-25T13:17:04;12.73;;;3.88;;
1446;SDS011;717;51.522;7.266;2023-04-25T13:19:33;6.30;;;2.50;;
1446;SDS011;717;51.522;7.266;2023-04-25T13:22:01;2.97;;;0.80;;
1446;SDS011;717;51.522;7.266;2023-04-25T13:24:30;3.53;;;1.02;;
1446;SDS011;717;51.522;7.266;2023-04-25T13:26:58;1.42;;;0.50;;
1446;SDS011;717;51.522;7.266;2023-04-25T13:29:30;3.60;;;1.10;;
1446;SDS011;717;51.522;7.266;2023-04-25T13:32:00;1.85;;;0.70;;
1446;SDS011;717;51.522;7.266;2023-04-25T13:34:29;2.65;;;0.82;;
1446;SDS011;717;51.522;7.266;2023-04-25T13:36:57;5.50;;;0.98;;
1446;SDS011;717;51.522;7.266;2023-04-25T13:39:26;3.28;;;1.10;;
1446;SDS011;717;51.522;7.266;2023-04-25T13:41:54;3.75;;;1.30;;
1446;SDS011;717;51.522;7.266;2023-04-25T13:44:23;2.03;;;0.73;;
1446;SDS011;717;51.522;7.266;2023-04-25T13:46:55;15.50;;;4.30;;
1446;SDS011;717;51.522;7.266;2023-04-25T13:49:25;4.55;;;1.17;;
1446;SDS011;717;51.522;7.266;2023-04-25T13:51:54;2.80;;;0.80;;
1446;SDS011;717;51.522;7.266;2023-04-25T13:54:22;3.63;;;0.65;;
1446;SDS011;717;51.522;7.266;2023-04-25T13:56:51;2.58;;;0.80;;
1446;SDS011;717;51.522;7.266;2023-04-25T13:59:23;11.98;;;3.63;;
1446;SDS011;717;51.522;7.266;2023-04-25T14:01:54;2.42;;;1.00;;
1446;SDS011;717;51.522;7.266;2023-04-25T14:04:23;3.03;;;0.82;;
1446;SDS011;717;51.522;7.266;2023-04-25T14:06:52;3.22;;;0.80;;
1446;SDS011;717;51.522;7.266;2023-04-25T14:09:21;3.58;;;0.98;;
1446;SDS011;717;51.522;7.266;2023-04-25T14:11:50;5.18;;;1.30;;
1446;SDS011;717;51.522;7.266;2023-04-25T14:14:19;22.75;;;5.85;;
1446;SDS011;717;51.522;7.266;2023-04-25T14:16:48;3.95;;;1.05;;
1446;SDS011;717;51.522;7.266;2023-04-25T14:19:21;20.92;;;6.30;;
1446;SDS011;717;51.522;7.266;2023-04-25T14:21:50;7.47;;;1.80;;
1446;SDS011;717;51.522;7.266;2023-04-25T14:24:18;1.05;;;0.50;;
1446;SDS011;717;51.522;7.266;2023-04-25T14:26:47;1.90;;;0.50;;
1446;SDS011;717;51.522;7.266;2023-04-25T14:29:15;2.25;;;0.70;;
1446;SDS011;717;51.522;7.266;2023-04-25T14:31:44;2.85;;;0.52;;
1446;SDS011;717;51.522;7.266;2023-04-25T14:34:12;4.57;;;1.27;;
1446;SDS011;717;51.522;7.266;2023-04-25T14:36:44;4.38;;;1.48;;
1446;SDS011;717;51.522;7.266;2023-04-25T14:39:12;3.47;;;1.00;;
1446;SDS011;717;51.522;7.266;2023-04-25T14:41:41;3.53;;;0.95;;
1446;SDS011;717;51.522;7.266;2023-04-25T14:44:10;4.13;;;0.75;;
1446;SDS011;717;51.522;7.266;2023-04-25T14:46:38;2.92;;;0.80;;
1446;SDS011;717;51.522;7.266;2023-04-25T14:49:07;2.42;;;0.60;;
1446;SDS011;717;51.522;7.266;2023-04-25T14:51:36;3.30;;;0.82;;
1446;SDS011;717;51.522;7.266;2023-04-25T14:54:07;2.17;;;0.70;;
1446;SDS011;717;51.522;7.266;2023-04-25T14:56:37;1.63;;;0.50;;
1446;SDS011;717;51.522;7.266;2023-04-25T14:59:05;0.80;;;0.52;;
1446;SDS011;717;51.522;7.266;2023-04-25T15:01:34;1.65;;;0.65;;
1446;SDS011;717;51.522;7.266;2023-04-25T15:04:02;1.27;;;0.45;;
1446;SDS011;717;51.522;7.266;2023-04-25T15:06:31;1.13;;;0.45;;
1446;SDS011;717;51.522;7.266;2023-04-25T15:08:59;4.47;;;1.00;;
1446;SDS011;717;51.522;7.266;2023-04-25T15:11:31;3.95;;;0.90;;
1446;SDS011;717;51.522;7.266;2023-04-25T15:13:59;6.13;;;1.52;;
1446;SDS011;717;51.522;7.266;2023-04-25T15:16:28;4.85;;;1.27;;
1446;SDS011;717;51.522;7.266;2023-04-25T15:18:56;7.78;;;1.20;;
1446;SDS011;717;51.522;7.266;2023-04-25T15:21:28;3.00;;;0.90;;
1446;SDS011;717;51.522;7.266;2023-04-25T15:23:57;4.78;;;0.93;;
1446;SDS011;717;51.522;7.266;2023-04-25T15:26:26;2.42;;;0.80;;
1446;SDS011;717;51.522;7.266;2023-04-25T15:28:58;3.53;;;0.75;;
1446;SDS011;717;51.522;7.266;2023-04-25T15:31:28;6.13;;;1.10;;
1446;SDS011;717;51.522;7.266;2023-04-25T15:33:57;3.50;;;0.90;;
1446;SDS011;717;51.522;7.266;2023-04-25T15:36:25;5.05;;;1.38;;
1446;SDS011;717;51.522;7.266;2023-04-25T15:38:53;4.38;;;1.00;;
1446;SDS011;717;51.522;7.266;2023-04-25T15:41:23;2.45;;;0.70;;
1446;SDS011;717;51.522;7.266;2023-04-25T15:43:52;2.60;;;0.60;;